createdAt,value
2018-08-20T00:02:04.968Z,9.07
2018-08-20T00:04:38.841Z,10.50
2018-08-20T00:07:07.392Z,10.10
2018-08-20T00:09:41.447Z,10.87
2018-08-20T00:12:10.440Z,11.30
2018-08-20T00:14:39.012Z,10.50
2018-08-20T00:17:07.547Z,9.70
2018-08-20T00:19:36.152Z,10.60
2018-08-20T00:22:04.743Z,9.63
2018-08-20T00:24:33.283Z,9.80
2018-08-20T00:27:02.953Z,10.43
2018-08-20T00:29:31.944Z,9.70
2018-08-20T00:32:00.475Z,10.40
2018-08-20T00:34:28.999Z,11.00
2018-08-20T00:36:57.516Z,9.87
2018-08-20T00:39:26.772Z,11.73
2018-08-20T00:41:55.351Z,11.50
2018-08-20T00:44:23.848Z,10.20
2018-08-20T00:46:52.408Z,11.70
2018-08-20T00:49:20.961Z,11.03
2018-08-20T00:51:49.474Z,10.20
2018-08-20T00:54:18.064Z,11.10
2018-08-20T00:56:46.623Z,12.63
2018-08-20T00:59:15.109Z,9.90
2018-08-20T01:01:43.700Z,10.63
2018-08-20T01:04:12.234Z,10.00
2018-08-20T01:06:40.772Z,10.67
2018-08-20T01:09:09.800Z,11.93
2018-08-20T01:11:38.484Z,13.23
2018-08-20T01:14:07.007Z,10.07
2018-08-20T01:16:35.573Z,10.63
2018-08-20T01:19:04.199Z,12.17
2018-08-20T01:21:32.806Z,11.50
2018-08-20T01:24:01.335Z,11.87
2018-08-20T01:26:29.855Z,12.03
2018-08-20T01:28:58.389Z,10.90
2018-08-20T01:31:26.988Z,11.40
2018-08-20T01:33:55.532Z,11.37
2018-08-20T01:36:24.099Z,10.90
2018-08-20T01:38:52.649Z,11.63
2018-08-20T01:41:21.147Z,10.43
2018-08-20T01:43:49.696Z,10.37
2018-08-20T01:46:18.240Z,10.40
2018-08-20T01:48:46.803Z,10.70
2018-08-20T01:51:15.411Z,11.27
2018-08-20T01:53:44.096Z,11.10
2018-08-20T01:56:12.645Z,11.77
2018-08-20T01:58:41.177Z,11.53
2018-08-20T02:01:10.013Z,11.17
2018-08-20T02:03:38.564Z,10.30
2018-08-20T02:06:07.328Z,10.57
2018-08-20T02:08:35.936Z,11.00
2018-08-20T02:11:04.515Z,12.30
2018-08-20T02:13:33.044Z,11.00
2018-08-20T02:16:01.600Z,12.60
2018-08-20T02:18:30.240Z,10.93
2018-08-20T02:20:58.822Z,12.50
2018-08-20T02:23:27.379Z,12.80
2018-08-20T02:25:55.933Z,10.57
2018-08-20T02:28:24.527Z,10.80
2018-08-20T02:30:53.093Z,10.13
2018-08-20T02:33:21.652Z,11.93
2018-08-20T02:35:50.256Z,12.70
2018-08-20T02:38:18.857Z,11.37
2018-08-20T02:40:47.423Z,12.27
2018-08-20T02:43:16.007Z,12.43
2018-08-20T02:45:44.572Z,11.30
2018-08-20T02:48:13.152Z,12.67
2018-08-20T02:50:41.723Z,13.30
2018-08-20T02:53:10.302Z,12.67
2018-08-20T02:55:38.901Z,13.70
2018-08-20T02:58:07.524Z,13.03
2018-08-20T03:00:36.070Z,13.03
2018-08-20T03:03:05.264Z,12.63
2018-08-20T03:05:34.445Z,10.97
2018-08-20T03:08:03.064Z,11.27
2018-08-20T03:10:31.600Z,11.83
2018-08-20T03:13:00.208Z,10.70
2018-08-20T03:15:28.763Z,11.17
2018-08-20T03:17:57.363Z,12.83
2018-08-20T03:20:25.929Z,11.70
2018-08-20T03:22:54.534Z,12.00
2018-08-20T03:25:23.132Z,12.07
2018-08-20T03:27:51.704Z,14.80
2018-08-20T03:30:20.288Z,11.00
2018-08-20T03:32:48.880Z,12.87
2018-08-20T03:35:17.463Z,13.63
2018-08-20T03:37:45.991Z,12.20
2018-08-20T03:40:14.601Z,11.73
2018-08-20T03:42:43.392Z,12.03
2018-08-20T03:45:12.068Z,11.10
2018-08-20T03:47:40.635Z,10.10
2018-08-20T03:50:11.624Z,10.30
2018-08-20T03:52:40.185Z,10.60
2018-08-20T03:55:08.778Z,10.07
2018-08-20T03:57:37.869Z,12.00
2018-08-20T04:00:07.375Z,9.53
2018-08-20T04:02:35.909Z,10.70
2018-08-20T04:05:04.836Z,11.30
2018-08-20T04:07:33.422Z,11.67
2018-08-20T04:10:01.949Z,11.03
2018-08-20T04:12:30.533Z,11.10
2018-08-20T04:14:59.064Z,11.37
2018-08-20T04:17:27.644Z,10.87
2018-08-20T04:19:56.209Z,13.50
2018-08-20T04:22:24.708Z,11.60
2018-08-20T04:24:53.275Z,9.60
2018-08-20T04:27:21.810Z,10.90
2018-08-20T04:29:50.376Z,12.40
2018-08-20T04:32:18.886Z,10.70
2018-08-20T04:34:47.460Z,11.77
2018-08-20T04:37:16.020Z,12.13
2018-08-20T04:39:44.554Z,12.67
2018-08-20T04:42:13.212Z,12.10
2018-08-20T04:44:41.693Z,12.67
2018-08-20T04:47:10.311Z,11.40
2018-08-20T04:49:38.845Z,11.03
2018-08-20T04:52:07.520Z,10.60
2018-08-20T04:54:36.039Z,10.30
2018-08-20T04:57:09.028Z,10.50
2018-08-20T04:59:37.586Z,11.10
2018-08-20T05:02:06.624Z,10.93
2018-08-20T05:04:35.711Z,9.33
2018-08-20T05:07:06.051Z,13.33
2018-08-20T05:09:34.619Z,11.30
2018-08-20T05:12:03.596Z,10.83
2018-08-20T05:14:32.289Z,10.70
2018-08-20T05:17:01.168Z,11.30
2018-08-20T05:19:29.704Z,11.37
2018-08-20T05:21:58.216Z,11.93
2018-08-20T05:24:26.769Z,9.53
2018-08-20T05:26:55.301Z,10.10
2018-08-20T05:29:23.861Z,10.90
2018-08-20T05:31:52.424Z,9.33
2018-08-20T05:34:20.930Z,11.33
2018-08-20T05:36:49.455Z,9.10
2018-08-20T05:39:17.992Z,10.80
2018-08-20T05:41:46.532Z,11.57
2018-08-20T05:44:15.052Z,10.53
2018-08-20T05:46:43.626Z,11.67
2018-08-20T05:49:12.140Z,11.80
2018-08-20T05:51:40.677Z,11.23
2018-08-20T05:54:09.182Z,11.00
2018-08-20T05:56:37.709Z,11.47
2018-08-20T05:59:06.305Z,11.37
2018-08-20T06:01:34.904Z,12.07
2018-08-20T06:04:03.504Z,10.80
2018-08-20T06:06:32.135Z,10.20
2018-08-20T06:09:00.709Z,11.40
2018-08-20T06:11:29.259Z,10.00
2018-08-20T06:13:57.831Z,10.07
2018-08-20T06:16:26.356Z,9.77
2018-08-20T06:18:54.920Z,10.87
2018-08-20T06:21:23.470Z,10.40
2018-08-20T06:23:51.988Z,9.40
2018-08-20T06:26:20.519Z,8.70
2018-08-20T06:28:49.051Z,9.00
2018-08-20T06:31:17.569Z,8.23
2018-08-20T06:33:46.112Z,8.63
2018-08-20T06:36:14.683Z,9.00
2018-08-20T06:38:43.164Z,6.80
2018-08-20T06:41:11.731Z,6.73
2018-08-20T06:43:40.242Z,7.17
2018-08-20T06:46:08.823Z,6.50
2018-08-20T06:48:37.389Z,7.57
2018-08-20T06:51:05.890Z,6.00
2018-08-20T06:53:34.372Z,6.73
2018-08-20T06:56:02.964Z,6.10
2018-08-20T06:58:31.527Z,6.50
2018-08-20T07:01:00.132Z,6.27
2018-08-20T07:03:28.691Z,5.97
2018-08-20T07:05:57.240Z,6.33
2018-08-20T07:08:25.816Z,6.30
2018-08-20T07:10:54.331Z,6.20
2018-08-20T07:13:37.842Z,6.10
2018-08-20T07:16:07.784Z,7.40
2018-08-20T07:18:36.368Z,6.10
2018-08-20T07:21:04.901Z,5.97
2018-08-20T07:23:33.594Z,6.03
2018-08-20T07:26:02.047Z,5.90
2018-08-20T07:28:30.675Z,5.37
2018-08-20T07:30:59.282Z,6.17
2018-08-20T07:33:27.800Z,5.77
2018-08-20T07:35:56.375Z,4.90
2018-08-20T07:38:24.972Z,5.70
2018-08-20T07:40:53.486Z,5.73
2018-08-20T07:43:22.071Z,5.73
2018-08-20T07:45:50.596Z,5.27
2018-08-20T07:48:19.246Z,5.23
2018-08-20T07:50:47.821Z,5.87
2018-08-20T07:53:16.402Z,5.53
2018-08-20T07:55:45.021Z,6.50
2018-08-20T07:58:13.464Z,5.27
2018-08-20T08:00:42.003Z,5.53
2018-08-20T08:03:10.677Z,5.00
2018-08-20T08:05:39.200Z,5.00
2018-08-20T08:08:07.746Z,5.27
2018-08-20T08:10:36.319Z,5.73
2018-08-20T08:13:04.904Z,5.60
2018-08-20T08:15:33.495Z,5.00
2018-08-20T08:18:02.020Z,5.40
2018-08-20T08:20:30.567Z,5.37
2018-08-20T08:22:59.083Z,4.73
2018-08-20T08:25:27.643Z,4.93
2018-08-20T08:27:56.250Z,4.77
2018-08-20T08:30:24.779Z,4.43
2018-08-20T08:32:53.319Z,5.20
2018-08-20T08:35:21.880Z,4.40
2018-08-20T08:37:50.409Z,6.07
2018-08-20T08:40:18.962Z,4.00
2018-08-20T08:42:47.595Z,3.97
2018-08-20T08:45:17.835Z,5.37
2018-08-20T08:47:46.809Z,4.60
2018-08-20T08:50:16.757Z,4.97
2018-08-20T08:52:45.859Z,3.70
2018-08-20T08:55:14.431Z,4.27
2018-08-20T08:57:43.012Z,4.20
2018-08-20T09:00:15.056Z,5.00
2018-08-20T09:02:43.815Z,5.87
2018-08-20T09:05:12.720Z,4.97
2018-08-20T09:07:42.113Z,4.80
2018-08-20T09:10:11.366Z,3.43
2018-08-20T09:12:40.077Z,5.20
2018-08-20T09:15:12.633Z,4.87
2018-08-20T09:17:41.145Z,4.83
2018-08-20T09:20:12.172Z,4.60
2018-08-20T09:22:40.831Z,3.40
2018-08-20T09:25:10.721Z,3.20
2018-08-20T09:27:39.616Z,4.93
2018-08-20T09:30:12.541Z,4.50
2018-08-20T09:32:41.128Z,3.53
2018-08-20T09:35:10.331Z,4.57
2018-08-20T09:37:39.275Z,4.40
2018-08-20T09:40:08.547Z,3.70
2018-08-20T09:42:37.487Z,4.63
2018-08-20T09:45:06.336Z,4.27
2018-08-20T09:47:35.323Z,2.90
2018-08-20T09:50:04.236Z,4.77
2018-08-20T09:52:32.792Z,3.80
2018-08-20T09:55:01.306Z,3.60
2018-08-20T09:57:29.917Z,3.10
2018-08-20T09:59:58.448Z,3.73
2018-08-20T10:02:27.239Z,4.10
2018-08-20T10:04:55.819Z,4.30
2018-08-20T10:07:24.374Z,4.70
2018-08-20T10:09:52.872Z,4.13
2018-08-20T10:12:21.444Z,3.00
2018-08-20T10:14:50.045Z,4.10
2018-08-20T10:17:18.639Z,4.60
2018-08-20T10:19:47.172Z,4.10
2018-08-20T10:22:15.704Z,4.10
2018-08-20T10:24:44.243Z,4.40
2018-08-20T10:27:12.822Z,4.43
2018-08-20T10:29:41.345Z,4.20
2018-08-20T10:32:10.022Z,4.20
2018-08-20T10:34:38.493Z,4.60
2018-08-20T10:37:07.042Z,4.63
2018-08-20T10:39:35.616Z,5.00
2018-08-20T10:42:04.189Z,4.57
2018-08-20T10:44:36.912Z,4.60
2018-08-20T10:47:05.472Z,4.60
2018-08-20T10:49:33.995Z,4.17
2018-08-20T10:52:02.559Z,5.17
2018-08-20T10:54:31.119Z,4.40
2018-08-20T10:56:59.688Z,4.50
2018-08-20T10:59:28.292Z,4.20
2018-08-20T11:01:56.801Z,3.77
2018-08-20T11:04:26.233Z,4.40
2018-08-20T11:06:54.829Z,4.17
2018-08-20T11:09:23.356Z,4.13
2018-08-20T11:11:51.908Z,4.13
2018-08-20T11:14:20.412Z,5.00
2018-08-20T11:16:49.028Z,4.87
2018-08-20T11:19:17.589Z,4.20
2018-08-20T11:21:46.152Z,5.07
2018-08-20T11:24:14.663Z,4.33
2018-08-20T11:26:43.292Z,4.30
2018-08-20T11:29:11.825Z,4.73
2018-08-20T11:31:40.312Z,4.20
2018-08-20T11:34:08.891Z,4.67
2018-08-20T11:36:37.423Z,4.80
2018-08-20T11:39:06.567Z,4.17
2018-08-20T11:41:35.190Z,4.77
2018-08-20T11:44:03.800Z,5.30
2018-08-20T11:46:32.601Z,4.80
2018-08-20T11:49:01.514Z,4.67
2018-08-20T11:51:30.031Z,4.80
2018-08-20T11:53:58.575Z,4.27
2018-08-20T11:56:27.120Z,4.23
2018-08-20T11:58:55.739Z,4.30
2018-08-20T12:01:24.282Z,3.70
2018-08-20T12:03:55.813Z,4.87
2018-08-20T12:06:25.438Z,4.90
2018-08-20T12:08:54.019Z,4.23
2018-08-20T12:11:22.605Z,4.17
2018-08-20T12:13:52.128Z,4.80
2018-08-20T12:16:20.681Z,4.33
2018-08-20T12:18:49.176Z,4.30
2018-08-20T12:21:17.711Z,4.43
2018-08-20T12:23:46.208Z,4.20
2018-08-20T12:26:14.764Z,4.33
2018-08-20T12:28:43.304Z,4.20
2018-08-20T12:31:11.844Z,4.57
2018-08-20T12:33:40.377Z,3.30
2018-08-20T12:36:08.973Z,3.50
2018-08-20T12:38:37.526Z,4.37
2018-08-20T12:41:06.151Z,4.40
2018-08-20T12:43:34.695Z,4.23
2018-08-20T12:46:03.407Z,3.57
2018-08-20T12:48:31.913Z,4.13
2018-08-20T12:51:00.462Z,3.50
2018-08-20T12:53:29.084Z,3.60
2018-08-20T12:55:57.611Z,3.40
2018-08-20T12:58:26.136Z,4.20
2018-08-20T13:00:54.683Z,4.20
2018-08-20T13:03:23.224Z,3.43
2018-08-20T13:05:51.816Z,4.27
2018-08-20T13:08:20.367Z,3.77
2018-08-20T13:10:48.921Z,3.33
2018-08-20T13:13:17.473Z,3.10
2018-08-20T13:15:46.013Z,3.43
2018-08-20T13:18:14.547Z,3.30
2018-08-20T13:20:43.063Z,3.30
2018-08-20T13:23:11.656Z,2.73
2018-08-20T13:25:40.132Z,2.80
2018-08-20T13:28:08.644Z,3.43
2018-08-20T13:30:37.219Z,3.30
2018-08-20T13:33:05.965Z,3.30
2018-08-20T13:35:34.511Z,3.20
2018-08-20T13:38:03.056Z,3.27
2018-08-20T13:40:31.608Z,2.90
2018-08-20T13:43:00.143Z,3.40
2018-08-20T13:45:28.712Z,3.13
2018-08-20T13:50:20.822Z,4.00
2018-08-20T13:52:49.239Z,3.10
2018-08-20T13:55:17.763Z,2.70
2018-08-20T13:57:47.484Z,2.97
2018-08-20T14:00:18.136Z,3.70
2018-08-20T14:02:46.635Z,3.47
2018-08-20T14:05:16.212Z,3.27
2018-08-20T14:07:45.343Z,3.30
2018-08-20T14:10:13.865Z,5.50
2018-08-20T14:12:42.880Z,3.90
2018-08-20T14:15:12.578Z,3.47
2018-08-20T14:17:42.039Z,3.03
2018-08-20T14:20:12.761Z,4.20
2018-08-20T14:22:41.833Z,3.37
2018-08-20T14:25:10.499Z,3.67
2018-08-20T14:27:38.969Z,3.70
2018-08-20T14:30:09.731Z,3.67
2018-08-20T14:32:38.291Z,3.40
2018-08-20T14:35:07.417Z,3.33
2018-08-20T14:37:35.948Z,3.27
2018-08-20T14:40:06.629Z,3.07
2018-08-20T14:42:35.168Z,3.30
2018-08-20T14:45:03.760Z,3.70
2018-08-20T14:47:32.312Z,2.93
2018-08-20T14:50:00.877Z,3.70
2018-08-20T14:52:29.422Z,3.73
2018-08-20T14:54:57.949Z,4.00
2018-08-20T14:57:26.486Z,4.33
2018-08-20T14:59:55.017Z,3.87
2018-08-20T15:02:23.554Z,4.07
2018-08-20T15:04:52.120Z,3.20
2018-08-20T15:07:20.656Z,4.03
2018-08-20T15:09:49.207Z,3.20
2018-08-20T15:12:17.750Z,2.80
2018-08-20T15:14:46.482Z,3.37
2018-08-20T15:17:15.000Z,3.50
2018-08-20T15:19:43.512Z,3.47
2018-08-20T15:22:12.082Z,4.03
2018-08-20T15:24:40.621Z,3.60
2018-08-20T15:27:09.147Z,3.40
2018-08-20T15:29:37.665Z,4.20
2018-08-20T15:32:06.219Z,3.50
2018-08-20T15:34:34.752Z,3.93
2018-08-20T15:37:03.307Z,3.67
2018-08-20T15:39:31.903Z,3.10
2018-08-20T15:42:00.389Z,3.73
2018-08-20T15:44:28.965Z,3.30
2018-08-20T15:46:57.574Z,3.63
2018-08-20T15:49:26.155Z,3.40
2018-08-20T15:51:54.712Z,3.00
2018-08-20T15:54:23.235Z,3.20
2018-08-20T15:56:51.743Z,4.00
2018-08-20T15:59:20.302Z,3.33
2018-08-20T16:01:48.925Z,3.30
2018-08-20T16:04:17.476Z,2.60
2018-08-20T16:06:46.044Z,3.17
2018-08-20T16:09:14.584Z,3.50
2018-08-20T16:11:43.071Z,3.60
2018-08-20T16:14:12.427Z,3.00
2018-08-20T16:16:40.933Z,3.47
2018-08-20T16:19:09.462Z,3.60
2018-08-20T16:21:38.024Z,3.50
2018-08-20T16:24:06.816Z,3.50
2018-08-20T16:26:35.370Z,3.23
2018-08-20T16:29:03.944Z,3.40
2018-08-20T16:31:32.591Z,4.07
2018-08-20T16:34:01.164Z,3.63
2018-08-20T16:36:29.892Z,3.33
2018-08-20T16:38:58.396Z,4.60
2018-08-20T16:41:26.966Z,3.40
2018-08-20T16:43:55.557Z,3.70
2018-08-20T16:46:24.115Z,3.63
2018-08-20T16:48:52.857Z,4.03
2018-08-20T16:51:21.416Z,3.70
2018-08-20T16:53:49.993Z,4.50
2018-08-20T16:56:18.539Z,3.73
2018-08-20T16:58:47.075Z,3.90
2018-08-20T17:01:17.936Z,3.57
2018-08-20T17:07:00.479Z,3.77
2018-08-20T17:09:29.255Z,3.60
2018-08-20T17:11:57.876Z,3.50
2018-08-20T17:14:26.428Z,4.10
2018-08-20T17:16:55.104Z,3.27
2018-08-20T17:19:23.687Z,3.70
2018-08-20T17:21:52.252Z,3.70
2018-08-20T17:24:29.183Z,3.53
2018-08-20T17:26:58.563Z,4.27
2018-08-20T17:29:27.145Z,4.43
2018-08-20T17:31:55.685Z,4.10
2018-08-20T17:34:24.288Z,3.87
2018-08-20T17:36:53.189Z,3.87
2018-08-20T17:39:21.814Z,4.00
2018-08-20T17:41:50.446Z,3.70
2018-08-20T17:44:20.904Z,3.90
2018-08-20T17:46:49.499Z,4.13
2018-08-20T17:49:23.383Z,4.90
2018-08-20T17:51:51.971Z,4.47
2018-08-20T17:54:20.504Z,4.27
2018-08-20T17:56:49.063Z,4.37
2018-08-20T17:59:17.565Z,4.23
2018-08-20T18:01:46.073Z,4.40
2018-08-20T18:04:14.872Z,4.13
2018-08-20T18:06:48.093Z,4.50
2018-08-20T18:09:16.684Z,3.83
2018-08-20T18:11:48.766Z,4.27
2018-08-20T18:14:18.269Z,4.17
2018-08-20T18:16:46.847Z,4.67
2018-08-20T18:19:15.720Z,4.30
2018-08-20T18:21:44.345Z,3.97
2018-08-20T18:24:22.425Z,4.30
2018-08-20T18:26:55.064Z,5.00
2018-08-20T18:29:23.615Z,4.03
2018-08-20T18:32:00.727Z,4.63
2018-08-20T18:34:29.304Z,4.80
2018-08-20T18:36:58.023Z,5.27
2018-08-20T18:39:26.607Z,5.00
2018-08-20T18:42:00.004Z,5.53
2018-08-20T18:44:28.496Z,5.17
2018-08-20T18:46:57.087Z,5.70
2018-08-20T18:49:25.687Z,5.37
2018-08-20T18:52:15.043Z,6.00
2018-08-20T18:54:46.530Z,5.60
2018-08-20T18:57:18.957Z,5.60
2018-08-20T18:59:47.526Z,7.10
2018-08-20T19:02:32.625Z,6.50
2018-08-20T19:05:01.795Z,5.90
2018-08-20T19:07:30.385Z,6.10
2018-08-20T19:09:58.989Z,6.60
2018-08-20T19:12:28.062Z,6.40
2018-08-20T19:14:56.727Z,5.97
2018-08-20T19:17:26.129Z,5.77
2018-08-20T19:19:55.011Z,6.00
2018-08-20T19:22:27.088Z,6.70
2018-08-20T19:24:55.739Z,7.43
2018-08-20T19:27:31.219Z,6.70
2018-08-20T19:30:10.158Z,7.00
2018-08-20T19:32:38.735Z,6.60
2018-08-20T19:35:07.268Z,7.63
2018-08-20T19:37:35.820Z,7.17
2018-08-20T19:40:05.345Z,6.93
2018-08-20T19:42:34.808Z,7.23
2018-08-20T19:45:05.323Z,7.27
2018-08-20T19:47:34.341Z,7.73
2018-08-20T19:50:03.025Z,8.40
2018-08-20T19:52:31.565Z,7.43
2018-08-20T19:55:05.525Z,7.93
2018-08-20T19:57:34.066Z,7.20
2018-08-20T20:00:02.979Z,6.50
2018-08-20T20:02:31.581Z,7.40
2018-08-20T20:05:05.981Z,7.23
2018-08-20T20:07:36.111Z,7.30
2018-08-20T20:10:12.295Z,7.10
2018-08-20T20:12:46.148Z,6.70
2018-08-20T20:15:15.015Z,6.63
2018-08-20T20:17:43.660Z,7.30
2018-08-20T20:20:12.213Z,7.60
2018-08-20T20:22:40.971Z,7.47
2018-08-20T20:25:09.550Z,8.10
2018-08-20T20:27:38.092Z,7.10
2018-08-20T20:30:07.488Z,6.93
2018-08-20T20:32:36.088Z,7.10
2018-08-20T20:35:05.077Z,9.07
2018-08-20T20:37:33.630Z,8.57
2018-08-20T20:40:02.764Z,7.97
2018-08-20T20:42:31.516Z,8.10
2018-08-20T20:45:00.159Z,7.97
2018-08-20T20:47:28.700Z,7.10
2018-08-20T20:49:57.249Z,8.13
2018-08-20T20:52:25.787Z,6.90
2018-08-20T20:54:54.364Z,7.10
2018-08-20T20:57:22.885Z,7.33
2018-08-20T20:59:51.448Z,7.40
2018-08-20T21:02:20.056Z,7.97
2018-08-20T21:04:48.604Z,7.70
2018-08-20T21:07:22.500Z,7.63
2018-08-20T21:09:51.099Z,8.20
2018-08-20T21:12:19.691Z,8.70
2018-08-20T21:14:48.200Z,8.40
2018-08-20T21:17:16.761Z,8.40
2018-08-20T21:19:45.353Z,7.73
2018-08-20T21:22:13.920Z,8.03
2018-08-20T21:24:42.502Z,8.10
2018-08-20T21:27:19.106Z,7.73
2018-08-20T21:29:47.657Z,7.60
2018-08-20T21:32:16.200Z,8.20
2018-08-20T21:34:44.739Z,8.87
2018-08-20T21:37:13.287Z,7.97
2018-08-20T21:39:41.885Z,7.27
2018-08-20T21:42:10.405Z,7.97
2018-08-20T21:44:39.077Z,7.67
2018-08-20T21:47:28.462Z,7.60
2018-08-20T21:49:57.032Z,8.80
2018-08-20T21:52:25.731Z,7.87
2018-08-20T21:54:54.308Z,7.53
2018-08-20T21:57:22.843Z,8.27
2018-08-20T22:00:03.442Z,6.37
2018-08-20T22:02:32.791Z,7.93
2018-08-20T22:05:01.370Z,8.00
2018-08-20T22:07:29.924Z,8.27
2018-08-20T22:09:58.476Z,7.73
2018-08-20T22:12:27.060Z,8.17
2018-08-20T22:14:55.560Z,8.97
2018-08-20T22:17:30.987Z,8.20
2018-08-20T22:20:00.461Z,8.97
2018-08-20T22:22:29.176Z,9.20
2018-08-20T22:25:00.459Z,8.47
2018-08-20T22:27:30.267Z,8.40
2018-08-20T22:30:02.843Z,8.40
2018-08-20T22:32:32.443Z,8.20
2018-08-20T22:35:01.028Z,8.23
2018-08-20T22:37:29.548Z,8.47
2018-08-20T22:40:03.362Z,9.43
2018-08-20T22:42:43.728Z,9.37
2018-08-20T22:45:16.443Z,8.50
2018-08-20T22:47:45.927Z,9.90
2018-08-20T22:50:14.483Z,9.00
2018-08-20T22:52:46.448Z,9.13
2018-08-20T22:55:16.345Z,8.73
2018-08-20T22:58:16.109Z,9.57
2018-08-20T23:00:44.656Z,10.47
2018-08-20T23:03:13.267Z,9.90
2018-08-20T23:05:41.804Z,10.53
2018-08-20T23:08:18.747Z,9.60
2018-08-20T23:10:47.317Z,9.37
2018-08-20T23:13:15.933Z,9.47
2018-08-20T23:15:44.467Z,9.10
2018-08-20T23:18:12.996Z,8.70
2018-08-20T23:20:41.560Z,8.60
2018-08-20T23:23:10.069Z,10.60
2018-08-20T23:25:38.567Z,10.37
2018-08-20T23:28:07.134Z,8.93
2018-08-20T23:30:35.667Z,9.40
2018-08-20T23:33:04.952Z,9.80
2018-08-20T23:35:33.500Z,9.27
2018-08-20T23:38:02.060Z,8.80
2018-08-20T23:40:30.665Z,9.73
2018-08-20T23:42:59.244Z,10.30
2018-08-20T23:45:27.784Z,10.30
2018-08-20T23:47:56.312Z,10.67
2018-08-20T23:50:24.925Z,9.47
2018-08-20T23:52:53.496Z,9.60
2018-08-20T23:55:22.043Z,10.83
2018-08-20T23:57:50.604Z,10.20
